Time;durP1;ratioP1;P1;durP2;ratioP2;P2;SDS_P1;SDS_P2;PMS_P1;PMS_P2;Temp;Humidity;BMP_temperature;BMP_pressure;BME280_temperature;BME280_humidity;BME280_pressure;Samples;Min_cycle;Max_cycle;Signal;HPM_P1;HPM_P2
2022/10/02 00:01:59;;;;;;;9.95;2.42;;;;;;;13.37;52.16;101144.94;7392630;19;19995;-62
2022/10/02 00:04:32;;;;;;;13.50;2.00;;;;;;;13.37;52.32;101142.22;7391976;19;20453;-62
2022/10/02 00:07:04;;;;;;;9.00;1.92;;;;;;;13.32;52.36;101157.75;7391087;19;20021;-62
2022/10/02 00:09:50;;;;;;;8.75;1.58;;;;;;;13.35;52.30;101147.25;7387577;19;19998;-63
2022/10/02 00:12:19;;;;;;;12.35;1.98;;;;;;;13.31;52.51;101152.66;7389247;19;19995;-62
2022/10/02 00:14:47;;;;;;;9.02;1.67;;;;;;;13.38;52.11;101149.31;7390472;19;19999;-62
2022/10/02 00:17:37;;;;;;;6.85;1.88;;;;;;;13.44;52.19;101153.34;7392847;19;19991;-62
2022/10/02 00:20:12;;;;;;;7.82;1.58;;;;;;;13.36;52.34;101149.66;7391026;19;19991;-63
2022/10/02 00:22:49;;;;;;;7.38;1.55;;;;;;;13.40;52.12;101156.00;7390351;19;20010;-62
2022/10/02 00:25:38;;;;;;;9.20;1.65;;;;;;;13.32;52.13;101156.97;7392461;19;19995;-62
2022/10/02 00:28:23;;;;;;;6.93;1.80;;;;;;;13.31;52.28;101160.88;7389912;19;19994;-62
2022/10/02 00:31:12;;;;;;;6.50;1.42;;;;;;;13.33;52.21;101164.84;7390171;19;20423;-62
2022/10/02 00:34:06;;;;;;;8.68;1.50;;;;;;;13.41;51.98;101151.31;7391796;19;20544;-62
2022/10/02 00:36:58;;;;;;;7.82;1.55;;;;;;;13.45;52.00;101157.69;7391672;19;20006;-62
2022/10/02 00:39:34;;;;;;;8.02;1.50;;;;;;;13.34;52.21;101157.41;7391130;19;20054;-62
2022/10/02 00:42:15;;;;;;;7.63;1.20;;;;;;;13.24;52.58;101152.44;7390453;19;20005;-62
2022/10/02 00:45:12;;;;;;;8.88;1.60;;;;;;;13.26;52.42;101152.88;7390948;19;19995;-62
2022/10/02 00:48:02;;;;;;;5.20;1.58;;;;;;;13.26;52.92;101155.63;7391641;19;20013;-62
2022/10/02 00:50:45;;;;;;;7.53;1.67;;;;;;;13.15;52.84;101155.34;7389138;19;20018;-62
2022/10/02 00:53:32;;;;;;;11.75;1.70;;;;;;;13.24;52.67;101152.44;7392377;19;20005;-62
2022/10/02 00:56:36;;;;;;;13.50;2.00;;;;;;;13.26;52.39;101161.91;7389571;19;20018;-62
2022/10/02 00:59:31;;;;;;;8.80;1.83;;;;;;;13.22;52.61;101162.97;7388964;19;20625;-62
2022/10/02 01:01:56;;;;;;;;;;;;;;;13.25;52.54;101160.31;7389856;19;20090;-62
2022/10/02 01:04:29;;;;;;;9.60;1.60;;;;;;;13.29;52.38;101161.22;7391187;19;19907;-62
2022/10/02 01:06:55;;;;;;;9.02;1.77;;;;;;;13.21;52.62;101164.91;7391441;19;19991;-62
2022/10/02 01:09:22;;;;;;;9.60;2.20;;;;;;;13.14;52.75;101165.53;7388777;19;20032;-62
2022/10/02 01:11:48;;;;;;;10.38;2.10;;;;;;;13.24;52.43;101169.69;7389037;19;20451;-62
2022/10/02 01:14:14;;;;;;;11.93;1.92;;;;;;;13.28;52.43;101176.06;7390957;19;20006;-62
2022/10/02 01:16:41;;;;;;;8.57;1.55;;;;;;;13.33;52.54;101173.06;7389432;19;20022;-62
2022/10/02 01:19:25;;;;;;;7.47;1.80;;;;;;;13.38;51.97;101173.97;7389306;19;20035;-62
2022/10/02 01:21:57;;;;;;;8.23;1.60;;;;;;;13.32;52.44;101171.47;7393611;19;20362;-63
2022/10/02 01:24:33;;;;;;;11.65;1.90;;;;;;;13.31;52.36;101175.38;7396241;19;20009;-62
2022/10/02 01:26:59;;;;;;;8.98;1.83;;;;;;;13.26;52.65;101178.38;7398650;19;20016;-62
2022/10/02 01:29:24;;;;;;;9.52;2.25;;;;;;;13.11;53.06;101187.34;7395167;19;19995;-62
2022/10/02 01:31:50;;;;;;;7.15;2.28;;;;;;;13.14;53.09;101187.44;7396433;19;20003;-63
2022/10/02 01:34:15;;;;;;;8.32;1.95;;;;;;;13.14;52.93;101187.44;7395745;19;19990;-62
2022/10/02 01:36:42;;;;;;;9.68;2.30;;;;;;;13.10;53.37;101188.50;7398005;19;20458;-63
2022/10/02 01:39:11;;;;;;;8.38;2.42;;;;;;;13.16;52.99;101198.06;7397338;19;20309;-62
2022/10/02 01:41:42;;;;;;;11.75;2.80;;;;;;;13.02;53.38;101198.44;7395648;19;20023;-62
2022/10/02 01:44:08;;;;;;;8.95;2.13;;;;;;;13.10;53.24;101189.28;7395988;19;19999;-62
2022/10/02 01:47:01;;;;;;;13.93;2.53;;;;;;;13.25;53.27;101197.91;7397763;19;20005;-62
2022/10/02 01:49:53;;;;;;;14.13;2.72;;;;;;;13.21;53.23;101194.25;7394528;19;19998;-62
2022/10/02 01:52:32;;;;;;;10.90;2.70;;;;;;;13.18;53.37;101203.19;7393372;19;19995;-62
2022/10/02 01:55:21;;;;;;;10.57;2.40;;;;;;;13.08;53.68;101215.44;7396208;19;20034;-62
2022/10/02 01:58:03;;;;;;;11.15;2.67;;;;;;;13.15;53.39;101201.94;7397198;19;20074;-62
2022/10/02 02:00:50;;;;;;;11.13;2.40;;;;;;;13.21;53.35;101208.78;7394075;19;20023;-62
2022/10/02 02:03:45;;;;;;;13.07;3.10;;;;;;;13.12;54.10;101202.63;7394765;19;20041;-62
2022/10/02 02:06:34;;;;;;;11.85;2.60;;;;;;;13.05;54.38;101196.97;7393978;19;20022;-62
2022/10/02 02:09:17;;;;;;;9.80;2.42;;;;;;;13.14;53.99;101192.13;7395805;19;20002;-62
2022/10/02 02:12:12;;;;;;;11.90;2.75;;;;;;;13.18;54.00;101201.25;7392252;19;20007;-62
2022/10/02 02:14:50;;;;;;;11.77;2.95;;;;;;;13.15;53.95;101191.75;7397287;19;20025;-62
2022/10/02 02:17:44;;;;;;;12.32;3.47;;;;;;;13.21;53.75;101186.84;7395861;19;20037;-62
2022/10/02 02:20:21;;;;;;;14.75;3.10;;;;;;;13.22;53.67;101191.16;7395202;19;19998;-62
2022/10/02 02:22:50;;;;;;;11.32;2.80;;;;;;;13.19;53.81;101189.13;7394882;19;20007;-62
2022/10/02 02:25:21;;;;;;;9.80;1.98;;;;;;;13.10;53.88;101196.72;7396737;19;20003;-62
2022/10/02 02:27:52;;;;;;;9.77;2.05;;;;;;;13.20;53.69;101190.72;7395039;19;20023;-62
2022/10/02 02:30:20;;;;;;;6.93;2.00;;;;;;;13.27;53.10;101199.13;7395166;19;20005;-62
2022/10/02 02:32:51;;;;;;;11.80;2.28;;;;;;;13.13;53.08;101201.50;7393888;19;20042;-62
2022/10/02 02:35:32;;;;;;;10.68;2.33;;;;;;;13.20;53.15;101200.91;7395674;19;20502;-62
2022/10/02 02:38:05;;;;;;;9.93;2.13;;;;;;;13.14;53.04;101203.88;7395890;19;20459;-62
2022/10/02 02:40:35;;;;;;;8.50;1.63;;;;;;;13.23;53.02;101202.94;7399351;19;20093;-62
2022/10/02 02:43:13;;;;;;;10.27;2.20;;;;;;;13.17;53.16;101207.06;7391592;19;20007;-62
2022/10/02 02:45:54;;;;;;;7.75;1.80;;;;;;;13.16;53.24;101209.03;7396334;19;20011;-62
2022/10/02 02:48:25;;;;;;;9.38;2.22;;;;;;;13.14;53.36;101214.03;7394946;19;20033;-62
2022/10/02 02:51:07;;;;;;;10.23;1.90;;;;;;;13.13;53.29;101212.47;7393898;19;19998;-62
2022/10/02 02:53:48;;;;;;;11.65;2.22;;;;;;;13.07;53.22;101219.31;7393093;19;19998;-61
2022/10/02 02:56:18;;;;;;;14.13;2.65;;;;;;;12.98;53.79;101199.50;7393244;19;20010;-61
2022/10/02 02:59:08;;;;;;;13.32;2.58;;;;;;;12.89;53.96;101208.66;7392446;19;20010;-62
2022/10/02 03:01:34;;;;;;;11.70;3.00;;;;;;;12.94;53.95;101211.16;7393318;19;20002;-61
2022/10/02 03:04:00;;;;;;;9.05;2.40;;;;;;;12.95;53.87;101215.47;7394977;19;20328;-62
2022/10/02 03:06:32;;;;;;;19.38;3.15;;;;;;;12.94;54.02;101221.31;7394688;19;20006;-62
2022/10/02 03:08:59;;;;;;;15.02;3.33;;;;;;;12.96;53.87;101208.88;7392810;19;20078;-62
2022/10/02 03:11:43;;;;;;;12.13;3.20;;;;;;;12.93;54.53;101209.56;7393333;19;20011;-62
2022/10/02 03:14:35;;;;;;;12.35;3.58;;;;;;;12.92;54.33;101212.63;7394579;19;20002;-62
2022/10/02 03:17:13;;;;;;;16.67;3.90;;;;;;;12.93;54.26;101215.03;7394326;19;20002;-62
2022/10/02 03:19:51;;;;;;;14.93;4.05;;;;;;;12.89;54.86;101216.88;7392887;19;20401;-62
2022/10/02 03:22:40;;;;;;;18.05;3.50;;;;;;;12.85;54.87;101202.25;7391263;19;20622;-62
2022/10/02 03:25:19;;;;;;;15.13;3.63;;;;;;;12.86;54.82;101212.06;7391878;19;20016;-61
2022/10/02 03:28:15;;;;;;;17.98;4.57;;;;;;;12.89;54.81;101203.19;7393201;19;20092;-61
2022/10/02 03:30:42;;;;;;;13.63;4.20;;;;;;;12.87;54.71;101210.94;7392038;19;20435;-61
2022/10/02 03:33:11;;;;;;;14.93;3.90;;;;;;;12.87;54.79;101224.63;7394044;19;20513;-61
2022/10/02 03:35:37;;;;;;;13.40;4.07;;;;;;;12.87;54.92;101219.16;7391684;19;20013;-61
2022/10/02 03:38:08;;;;;;;15.93;4.25;;;;;;;12.91;54.71;101227.50;7390732;19;20482;-61
2022/10/02 03:40:34;;;;;;;16.52;4.68;;;;;;;12.94;54.67;101215.81;7395803;19;20002;-61
2022/10/02 03:43:00;;;;;;;13.27;4.15;;;;;;;12.92;54.84;101221.66;7389905;19;20002;-61
2022/10/02 03:45:27;;;;;;;17.05;4.90;;;;;;;12.83;54.97;101220.19;7394090;19;20475;-61
2022/10/02 03:47:53;;;;;;;14.88;4.25;;;;;;;12.92;54.88;101212.63;7390856;19;20014;-61
2022/10/02 03:50:20;;;;;;;17.85;4.57;;;;;;;12.87;54.93;101216.41;7390666;19;20006;-61
2022/10/02 03:52:49;;;;;;;14.02;4.13;;;;;;;12.94;54.50;101202.94;7392886;19;20343;-61
2022/10/02 03:55:34;;;;;;;16.27;4.75;;;;;;;12.85;55.21;101223.38;7391053;19;20003;-60
2022/10/02 03:58:12;;;;;;;18.23;4.38;;;;;;;12.83;55.36;101220.97;7392378;19;20018;-60
2022/10/02 04:00:47;;;;;;;17.10;4.95;;;;;;;12.79;55.24;101217.31;7393969;19;20402;-61
2022/10/02 04:03:48;;;;;;;18.50;4.35;;;;;;;12.92;55.27;101229.88;7390908;19;20003;-61
2022/10/02 04:06:25;;;;;;;15.40;4.43;;;;;;;12.93;54.85;101225.19;7390101;19;19995;-61
2022/10/02 04:09:01;;;;;;;14.35;4.32;;;;;;;12.89;54.84;101236.06;7390470;19;20008;-61
2022/10/02 04:11:35;;;;;;;14.25;4.32;;;;;;;12.89;54.91;101227.03;7392024;19;20031;-60
2022/10/02 04:14:22;;;;;;;17.17;5.10;;;;;;;12.95;54.98;101229.16;7391958;19;20009;-61
2022/10/02 04:17:01;;;;;;;14.32;4.43;;;;;;;12.94;54.85;101224.84;7392568;19;20058;-61
2022/10/02 04:19:38;;;;;;;14.48;4.50;;;;;;;12.87;55.15;101221.09;7391660;19;20017;-61
2022/10/02 04:22:30;;;;;;;19.75;4.57;;;;;;;12.81;55.61;101220.53;7391263;19;20003;-61
2022/10/02 04:25:01;;;;;;;19.70;4.32;;;;;;;12.81;55.15;101228.75;7390516;19;19995;-61
2022/10/02 04:27:55;;;;;;;17.73;4.65;;;;;;;12.88;54.77;101231.72;7392143;19;20011;-61
2022/10/02 04:30:22;;;;;;;13.32;4.10;;;;;;;12.84;55.07;101225.31;7390120;19;20022;-61
2022/10/02 04:32:48;;;;;;;15.45;4.07;;;;;;;12.92;55.12;101220.84;7390012;19;20002;-61
2022/10/02 04:35:16;;;;;;;17.50;4.13;;;;;;;12.98;54.86;101226.91;7392608;19;20089;-61
2022/10/02 04:37:59;;;;;;;12.50;4.00;;;;;;;12.84;55.49;101228.06;7392604;19;20002;-62
2022/10/02 04:40:53;;;;;;;16.47;4.70;;;;;;;12.84;55.55;101222.56;7393036;19;20002;-61
2022/10/02 04:43:47;;;;;;;17.10;4.10;;;;;;;12.91;55.26;101228.28;7389971;19;20255;-61
2022/10/02 04:46:32;;;;;;;17.45;4.53;;;;;;;12.89;55.06;101238.81;7389472;19;20013;-61
2022/10/02 04:49:16;;;;;;;19.35;4.57;;;;;;;12.99;54.93;101242.19;7390739;19;20006;-61
2022/10/02 04:52:00;;;;;;;;;;;;;;;12.92;55.52;101248.25;7391255;19;20003;-61
2022/10/02 04:54:44;;;;;;;13.50;4.23;;;;;;;12.94;54.90;101255.00;7391984;19;19979;-61
2022/10/02 04:57:19;;;;;;;19.40;3.80;;;;;;;13.00;55.17;101252.00;7385477;19;20013;-61
2022/10/02 05:00:10;;;;;;;13.57;3.42;;;;;;;13.04;54.96;101252.91;7391659;19;20035;-61
2022/10/02 05:03:10;;;;;;;16.60;4.05;;;;;;;13.07;54.84;101263.16;7389231;19;20017;-61
2022/10/02 05:05:52;;;;;;;18.60;4.30;;;;;;;13.05;54.74;101265.47;7391057;19;20007;-61
2022/10/02 05:08:56;;;;;;;14.48;3.80;;;;;;;13.01;55.14;101264.56;7388407;19;20027;-61
2022/10/02 05:11:46;;;;;;;19.42;3.95;;;;;;;13.04;55.05;101255.63;7390326;19;20011;-63
2022/10/02 05:14:26;;;;;;;19.23;4.30;;;;;;;13.02;54.96;101261.47;7390997;19;20013;-61
2022/10/02 05:16:57;;;;;;;15.27;3.53;;;;;;;13.08;54.98;101267.53;7388513;19;20475;-61
2022/10/02 05:19:35;;;;;;;16.95;4.10;;;;;;;13.14;55.05;101285.28;7389983;19;20014;-61
2022/10/02 05:22:26;;;;;;;16.55;3.85;;;;;;;13.15;55.33;101303.34;7386781;19;19999;-61
2022/10/02 05:25:20;;;;;;;12.93;3.20;;;;;;;13.14;55.17;101310.78;7390325;19;20019;-61
2022/10/02 05:28:20;;;;;;;18.90;4.67;;;;;;;13.12;55.74;101298.56;7389301;19;20491;-61
2022/10/02 05:30:48;;;;;;;16.90;3.83;;;;;;;13.07;55.62;101302.31;7387703;19;20504;-61
2022/10/02 05:33:22;;;;;;;16.98;3.88;;;;;;;12.96;56.42;101290.28;7391806;19;20003;-61
2022/10/02 05:36:06;;;;;;;12.95;3.70;;;;;;;13.04;56.28;101292.09;7392245;19;20008;-62
2022/10/02 05:39:01;;;;;;;19.98;3.90;;;;;;;12.91;57.05;101302.25;7387359;19;19999;-61
2022/10/02 05:41:51;;;;;;;23.85;4.32;;;;;;;13.09;56.22;101308.28;7387658;19;20023;-61
2022/10/02 05:44:23;;;;;;;14.93;3.78;;;;;;;13.14;56.34;101312.69;7389745;19;19999;-61
2022/10/02 05:46:57;;;;;;;14.15;3.70;;;;;;;13.21;55.96;101312.13;7389852;19;20002;-61
2022/10/02 05:49:31;;;;;;;14.63;3.70;;;;;;;13.11;56.36;101302.47;7388383;19;20002;-61
2022/10/02 05:51:59;;;;;;;11.68;3.70;;;;;;;13.17;56.64;101306.53;7389117;19;20016;-62
2022/10/02 05:54:27;;;;;;;17.38;3.83;;;;;;;13.26;56.33;101298.97;7389410;19;20016;-61
2022/10/02 05:57:11;;;;;;;15.15;3.70;;;;;;;13.32;56.01;101296.78;7387743;19;19999;-61
2022/10/02 05:59:56;;;;;;;18.03;4.10;;;;;;;13.33;56.01;101301.13;7389956;19;20446;-61
2022/10/02 06:02:41;;;;;;;13.77;3.85;;;;;;;13.33;56.18;101306.59;7361060;19;20267;-60
2022/10/02 06:05:36;;;;;;;14.23;4.00;;;;;;;13.33;56.36;101309.34;7387767;19;20001;-60
2022/10/02 06:08:05;;;;;;;15.15;3.20;;;;;;;13.28;56.10;101307.66;7390535;19;19999;-60
2022/10/02 06:10:40;;;;;;;14.98;3.75;;;;;;;13.29;56.14;101303.78;7396407;19;20006;-61
2022/10/02 06:13:22;;;;;;;16.75;4.28;;;;;;;13.28;56.33;101312.34;7396636;19;20009;-61
2022/10/02 06:15:54;;;;;;;14.40;3.78;;;;;;;13.31;55.98;101311.66;7395337;19;20057;-60
2022/10/02 06:18:24;;;;;;;14.18;3.63;;;;;;;13.29;56.24;101314.75;7395410;19;20019;-60
2022/10/02 06:21:05;;;;;;;13.68;3.30;;;;;;;13.32;55.90;101311.28;7393096;19;20007;-60
2022/10/02 06:23:38;;;;;;;15.15;3.63;;;;;;;13.30;56.16;101304.56;7394634;19;20009;-60
2022/10/02 06:26:23;;;;;;;18.73;3.38;;;;;;;13.32;55.81;101303.06;7395737;19;20006;-61
2022/10/02 06:29:06;;;;;;;14.45;3.70;;;;;;;13.31;56.03;101312.44;7396130;19;20006;-61
2022/10/02 06:31:49;;;;;;;13.10;3.20;;;;;;;13.30;55.84;101316.31;7395075;19;20024;-61
2022/10/02 06:34:15;;;;;;;15.32;3.45;;;;;;;13.25;56.05;101313.81;7396249;19;20439;-60
2022/10/02 06:37:08;;;;;;;15.68;3.70;;;;;;;13.19;56.40;101315.19;7395355;19;19998;-60
2022/10/02 06:39:54;;;;;;;12.65;3.30;;;;;;;13.18;56.20;101310.09;7397381;19;20008;-61
2022/10/02 06:42:35;;;;;;;14.32;3.15;;;;;;;13.09;56.52;101323.91;7392701;19;20090;-61
2022/10/02 06:45:20;;;;;;;14.88;3.30;;;;;;;13.07;56.73;101331.69;7393731;19;19994;-60
2022/10/02 06:48:01;;;;;;;16.25;3.42;;;;;;;13.19;56.33;101330.84;7395829;19;20009;-61
2022/10/02 06:50:48;;;;;;;13.70;3.10;;;;;;;13.29;56.01;101342.16;7395253;19;19995;-61
2022/10/02 06:53:13;;;;;;;12.85;3.05;;;;;;;13.50;55.45;101343.91;7394926;19;20015;-61
2022/10/02 06:56:00;;;;;;;16.67;2.83;;;;;;;13.46;55.66;101353.97;7394131;19;20100;-60
2022/10/02 06:58:32;;;;;;;16.85;3.10;;;;;;;13.58;55.58;101356.69;7394208;19;20017;-61
2022/10/02 07:01:06;;;;;;;13.52;3.00;;;;;;;13.55;55.47;101357.38;7394291;19;20006;-60
2022/10/02 07:04:17;;;;;;;14.15;3.05;;;;;;;13.57;55.64;101357.03;7394271;19;20031;-60
2022/10/02 07:07:09;;;;;;;13.43;3.10;;;;;;;13.73;55.09;101362.56;7395301;19;20002;-60
2022/10/02 07:10:06;;;;;;;13.80;3.30;;;;;;;13.70;55.09;101362.09;7393175;19;20006;-60
2022/10/02 07:13:11;;;;;;;13.38;3.45;;;;;;;13.64;55.32;101366.28;7392296;19;20112;-61
2022/10/02 07:16:06;;;;;;;14.63;2.90;;;;;;;13.62;55.41;101368.53;7394940;19;20002;-61
2022/10/02 07:18:51;;;;;;;12.82;2.78;;;;;;;13.54;55.92;101363.19;7393112;19;20007;-60
2022/10/02 07:21:40;;;;;;;13.32;2.45;;;;;;;13.43;56.14;101358.22;7393017;19;20002;-60
2022/10/02 07:24:36;;;;;;;14.80;2.67;;;;;;;13.50;55.75;101350.19;7392087;19;20074;-61
2022/10/02 07:27:25;;;;;;;16.13;3.40;;;;;;;13.52;55.63;101360.81;7395182;19;20313;-61
2022/10/02 07:30:05;;;;;;;15.57;2.95;;;;;;;13.54;55.74;101369.47;7393286;19;20002;-61
2022/10/02 07:32:48;;;;;;;14.75;3.17;;;;;;;13.54;55.77;101365.94;7391997;19;20062;-61
2022/10/02 07:35:45;;;;;;;13.50;2.53;;;;;;;13.64;55.69;101362.72;7393692;19;20010;-61
2022/10/02 07:38:44;;;;;;;16.95;2.75;;;;;;;13.64;55.69;101371.75;7392763;19;20472;-61
2022/10/02 07:41:33;;;;;;;13.98;2.70;;;;;;;13.59;55.82;101374.72;7395881;19;20479;-61
2022/10/02 07:44:21;;;;;;;10.48;2.50;;;;;;;13.53;56.11;101373.38;7392156;19;19999;-61
2022/10/02 07:47:08;;;;;;;14.15;2.88;;;;;;;13.66;55.56;101385.91;7393502;19;20066;-61
2022/10/02 07:49:48;;;;;;;13.25;2.58;;;;;;;13.74;55.65;101384.16;7392581;19;20006;-61
2022/10/02 07:52:28;;;;;;;14.95;2.75;;;;;;;13.74;55.57;101378.66;7391236;19;20003;-61
2022/10/02 07:55:17;;;;;;;12.80;2.33;;;;;;;13.72;55.35;101380.19;7391921;19;20002;-61
2022/10/02 07:58:09;;;;;;;12.90;2.28;;;;;;;13.81;55.32;101386.28;7390038;19;20014;-61
2022/10/02 08:00:42;;;;;;;13.02;2.72;;;;;;;13.78;55.33;101389.75;7392271;19;20036;-61
2022/10/02 08:03:47;;;;;;;14.47;3.37;;;;;;;13.95;55.07;101386.72;7389480;19;20006;-61
2022/10/02 08:06:13;;;;;;;;;;;;;;;14.06;55.07;101387.00;7390594;19;20267;-61
2022/10/02 08:09:04;;;;;;;14.48;2.85;;;;;;;14.15;54.64;101403.34;7391614;19;19918;-61
2022/10/02 08:11:54;;;;;;;18.55;2.97;;;;;;;14.12;54.19;101398.56;7391860;19;20006;-61
2022/10/02 08:14:33;;;;;;;11.82;2.78;;;;;;;14.09;54.18;101410.22;7390289;19;20011;-61
2022/10/02 08:17:27;;;;;;;19.75;3.75;;;;;;;13.90;55.08;101419.91;7390638;19;20006;-61
2022/10/02 08:19:56;;;;;;;;;;;;;;;14.00;54.96;101419.41;7391368;19;20076;-61
2022/10/02 08:22:33;;;;;;;14.18;2.90;;;;;;;14.18;54.57;101417.16;7390791;19;19923;-61
2022/10/02 08:25:15;;;;;;;14.95;2.75;;;;;;;14.20;54.41;101425.03;7392082;19;20393;-61
2022/10/02 08:27:54;;;;;;;12.57;2.38;;;;;;;14.27;54.09;101430.72;7392112;19;20031;-61
2022/10/02 08:30:20;;;;;;;11.73;2.40;;;;;;;14.23;54.18;101427.88;7390421;19;20002;-61
2022/10/02 08:32:46;;;;;;;13.25;2.97;;;;;;;14.41;53.75;101422.06;7392348;19;20037;-61
2022/10/02 08:35:18;;;;;;;15.48;2.45;;;;;;;14.65;53.34;101425.81;7390672;19;20058;-61
2022/10/02 08:37:49;;;;;;;12.70;2.75;;;;;;;14.90;52.63;101421.75;7392140;19;20474;-61
2022/10/02 08:40:45;;;;;;;14.48;2.90;;;;;;;15.10;52.69;101433.63;7391567;19;20002;-61
2022/10/02 08:43:54;;;;;;;17.35;3.20;;;;;;;15.19;52.15;101438.91;7388240;19;19995;-61
2022/10/02 08:46:57;;;;;;;13.20;2.20;;;;;;;15.07;52.44;101439.81;7391044;19;20387;-61
2022/10/02 08:49:53;;;;;;;16.23;2.63;;;;;;;14.99;52.48;101449.03;7388898;19;20487;-61
2022/10/02 08:52:28;;;;;;;13.73;2.90;;;;;;;15.20;52.51;101450.69;7389217;19;20340;-61
2022/10/02 08:55:24;;;;;;;12.55;2.78;;;;;;;15.13;52.19;101451.31;7391755;19;20013;-62
2022/10/02 08:58:01;;;;;;;15.43;2.45;;;;;;;15.20;52.11;101456.19;7388893;19;20479;-61
2022/10/02 09:00:45;;;;;;;16.25;2.60;;;;;;;14.98;52.34;101455.72;7389115;19;20068;-61
2022/10/02 09:03:32;;;;;;;19.67;2.83;;;;;;;14.78;52.44;101471.31;7389755;19;20070;-61
2022/10/02 09:06:09;;;;;;;13.35;3.22;;;;;;;14.80;52.22;101471.75;7388678;19;19998;-61
2022/10/02 09:09:26;;;;;;;13.63;3.08;;;;;;;14.72;51.67;101476.22;7389928;19;20031;-61
2022/10/02 09:12:10;;;;;;;13.43;2.45;;;;;;;14.75;51.19;101470.06;7387126;19;20002;-60
2022/10/02 09:14:50;;;;;;;9.80;1.90;;;;;;;14.79;50.71;101476.44;7391214;19;20003;-60
2022/10/02 09:17:42;;;;;;;11.90;2.38;;;;;;;14.83;51.06;101475.72;7389150;19;20006;-61
2022/10/02 09:20:40;;;;;;;15.93;2.65;;;;;;;15.12;50.68;101471.75;7390808;19;20015;-60
2022/10/02 09:23:55;;;;;;;11.70;2.50;;;;;;;15.23;51.19;101472.00;7387624;19;20511;-61
2022/10/02 09:26:42;;;;;;;11.60;1.95;;;;;;;15.30;50.96;101466.69;7389312;19;20002;-61
2022/10/02 09:29:57;;;;;;;12.98;2.08;;;;;;;15.30;50.95;101469.41;7389169;19;20018;-61
2022/10/02 09:32:46;;;;;;;14.70;3.53;;;;;;;15.45;50.63;101476.84;7389619;19;19999;-61
2022/10/02 09:35:23;;;;;;;14.10;2.63;;;;;;;15.47;50.68;101468.22;7390185;19;20023;-61
2022/10/02 09:38:04;;;;;;;12.38;2.85;;;;;;;15.50;50.87;101473.03;7390717;19;20322;-61
2022/10/02 09:40:54;;;;;;;16.60;2.75;;;;;;;15.53;50.79;101484.09;7391900;19;20027;-61
2022/10/02 09:43:50;;;;;;;14.48;2.30;;;;;;;15.33;50.55;101461.25;7392885;19;20003;-61
2022/10/02 09:47:02;;;;;;;17.58;2.13;;;;;;;15.63;50.34;101468.19;7397953;19;20033;-61
2022/10/02 09:49:56;;;;;;;11.05;2.00;;;;;;;15.51;49.80;101469.91;7393541;19;20352;-61
2022/10/02 09:52:50;;;;;;;8.03;2.00;;;;;;;15.45;49.55;101484.31;7395253;19;20031;-61
2022/10/02 09:56:07;;;;;;;11.02;2.22;;;;;;;15.40;49.04;101474.38;7397019;19;20006;-61
2022/10/02 09:59:06;;;;;;;13.90;2.42;;;;;;;15.53;49.09;101480.53;7392810;19;20010;-61
2022/10/02 10:01:40;;;;;;;11.05;2.70;;;;;;;15.45;49.78;101476.84;7394634;19;19995;-61
2022/10/02 10:04:45;;;;;;;10.93;2.78;;;;;;;15.50;49.30;101476.56;7397464;19;20002;-61
2022/10/02 10:07:58;;;;;;;18.10;3.03;;;;;;;15.31;49.42;101477.31;7396326;19;20003;-62
2022/10/02 10:10:49;;;;;;;12.43;2.10;;;;;;;15.34;49.76;101481.28;7398762;19;20430;-61
2022/10/02 10:13:36;;;;;;;12.88;2.20;;;;;;;15.32;49.94;101486.34;7396873;19;20489;-61
2022/10/02 10:16:40;;;;;;;12.45;2.38;;;;;;;15.41;49.64;101492.44;7395880;19;20459;-61
2022/10/02 10:19:26;;;;;;;8.68;1.90;;;;;;;15.54;49.14;101495.88;7395756;19;20028;-61
2022/10/02 10:22:11;;;;;;;11.13;2.80;;;;;;;15.77;48.65;101501.53;7393078;19;20467;-62
2022/10/02 10:24:55;;;;;;;9.45;2.08;;;;;;;15.91;48.74;101496.34;7394726;19;19998;-61
2022/10/02 10:27:51;;;;;;;9.90;2.05;;;;;;;15.89;48.01;101506.13;7395324;19;20007;-61
2022/10/02 10:30:44;;;;;;;8.43;1.77;;;;;;;15.84;47.35;101504.44;7395052;19;20006;-61
2022/10/02 10:33:25;;;;;;;8.80;1.83;;;;;;;15.75;47.34;101509.38;7395875;19;20503;-61
2022/10/02 10:38:31;;;;;;;7.10;1.65;;;;;;;15.97;47.46;101510.63;7396619;19;20054;-61
2022/10/02 10:39:33;;;;;;;10.55;2.15;;;;;;;16.05;47.44;101508.81;7395454;19;20039;-61
2022/10/02 10:42:33;;;;;;;11.00;2.15;;;;;;;16.13;47.34;101513.28;7393759;19;20019;-61
2022/10/02 10:45:29;;;;;;;9.50;2.15;;;;;;;16.03;46.85;101516.63;7395470;19;20476;-62
2022/10/02 10:48:19;;;;;;;10.10;2.10;;;;;;;15.83;47.64;101522.13;7395455;19;20378;-61
2022/10/02 10:51:02;;;;;;;12.15;2.05;;;;;;;15.76;47.69;101521.94;7393483;19;19991;-61
2022/10/02 10:53:44;;;;;;;9.82;1.60;;;;;;;15.50;47.92;101520.56;7393354;19;19999;-61
2022/10/02 10:56:33;;;;;;;12.73;2.20;;;;;;;15.59;48.06;101525.09;7393782;19;20107;-61
2022/10/02 10:59:41;;;;;;;10.82;2.05;;;;;;;15.45;48.15;101523.59;7394233;19;20018;-61
2022/10/02 11:02:42;;;;;;;11.95;2.97;;;;;;;15.64;48.32;101535.84;7392736;19;20294;-61
2022/10/02 11:05:48;;;;;;;12.00;2.60;;;;;;;16.25;47.26;101526.94;7393859;19;20013;-61
2022/10/02 11:08:42;;;;;;;13.10;2.38;;;;;;;16.50;46.87;101525.84;7394163;19;20002;-61
2022/10/02 11:11:32;;;;;;;9.70;2.20;;;;;;;16.43;47.15;101527.28;7391646;19;20027;-61
2022/10/02 11:14:19;;;;;;;13.55;2.63;;;;;;;16.34;47.41;101528.66;7394370;19;20573;-61
2022/10/02 11:17:06;;;;;;;12.00;2.70;;;;;;;16.18;47.10;101540.53;7394908;19;20471;-61
2022/10/02 11:19:42;;;;;;;13.43;2.92;;;;;;;16.10;46.97;101539.59;7393006;19;20006;-61
2022/10/02 11:22:44;;;;;;;13.40;2.78;;;;;;;16.21;46.60;101548.06;7393441;19;20002;-61
2022/10/02 11:25:18;;;;;;;13.43;2.70;;;;;;;16.24;47.10;101525.31;7393400;19;20066;-61
2022/10/02 11:27:47;;;;;;;15.30;2.83;;;;;;;16.31;46.91;101540.41;7394845;19;20007;-61
2022/10/02 11:30:37;;;;;;;15.95;2.67;;;;;;;16.27;46.59;101534.84;7391469;19;20011;-61
2022/10/02 11:33:03;;;;;;;14.70;2.40;;;;;;;16.36;46.53;101540.13;7391741;19;20343;-61
2022/10/02 11:35:37;;;;;;;14.95;2.63;;;;;;;16.28;46.02;101537.22;7393211;19;19998;-61
2022/10/02 11:38:21;;;;;;;15.68;2.50;;;;;;;16.19;45.91;101542.13;7392759;19;20007;-61
2022/10/02 11:40:49;;;;;;;;;;;;;;;16.40;45.63;101538.22;7398033;19;20019;-61
2022/10/02 11:43:57;;;;;;;11.27;2.28;;;;;;;16.49;45.56;101527.03;7391655;19;19919;-61
2022/10/02 11:46:36;;;;;;;12.75;2.58;;;;;;;16.29;45.61;101535.25;7393075;19;20007;-61
2022/10/02 11:49:06;;;;;;;11.35;2.13;;;;;;;16.28;45.66;101536.41;7392670;19;20001;-60
2022/10/02 11:51:54;;;;;;;15.85;2.80;;;;;;;16.43;45.09;101543.00;7393263;19;19999;-61
2022/10/02 11:54:28;;;;;;;12.80;3.20;;;;;;;16.40;45.24;101532.69;7394110;19;20014;-60
2022/10/02 11:57:16;;;;;;;16.20;3.30;;;;;;;16.56;45.42;101536.19;7391520;19;20590;-61
2022/10/02 12:00:11;;;;;;;13.48;2.70;;;;;;;16.30;44.48;101539.63;7392281;19;19998;-60
2022/10/02 12:02:49;;;;;;;12.68;2.60;;;;;;;16.37;43.85;101538.97;7390945;19;20408;-58
2022/10/02 12:05:54;;;;;;;15.07;3.25;;;;;;;16.33;44.61;101540.84;7388857;19;19999;-59
2022/10/02 12:08:30;;;;;;;;;;;;;;;16.18;43.15;101537.78;7389689;19;20009;-60
2022/10/02 12:11:02;;;;;;;13.13;2.75;;;;;;;16.17;44.39;101544.47;7392048;19;20011;-59
2022/10/02 12:13:45;;;;;;;11.38;2.40;;;;;;;15.97;44.47;101542.88;7392970;19;19999;-59
2022/10/02 12:16:38;;;;;;;15.02;2.95;;;;;;;16.16;44.80;101551.13;7392315;19;20006;-59
2022/10/02 12:19:25;;;;;;;12.95;2.05;;;;;;;16.18;44.62;101548.78;7391709;19;20004;-59
2022/10/02 12:28:42;;;;;;;16.77;2.33;;;;;;;16.26;44.07;101563.53;7389732;19;20013;-59
2022/10/02 12:31:32;;;;;;;9.43;2.30;;;;;;;16.08;44.66;101560.38;7391976;19;20006;-59
2022/10/02 12:34:16;;;;;;;14.18;2.88;;;;;;;16.15;44.90;101568.81;7389765;19;20455;-58
2022/10/02 12:36:55;;;;;;;11.95;2.35;;;;;;;16.05;45.45;101569.41;7392338;19;19998;-59
2022/10/02 12:39:33;;;;;;;14.68;2.78;;;;;;;16.15;45.43;101574.34;7390200;19;20386;-58